sensor_id;sensor_type;location;lat;lon;timestamp;temperature;humidity
47520;DHT22;33252;48.122;11.538;2023-08-24T00:01:07;24.20;86.40
47520;DHT22;33252;48.122;11.538;2023-08-24T00:03:34;24.10;86.30
47520;DHT22;33252;48.122;11.538;2023-08-24T00:05:59;24.00;86.60
47520;DHT22;33252;48.122;11.538;2023-08-24T00:08:26;24.00;87.00
47520;DHT22;33252;48.122;11.538;2023-08-24T00:10:52;24.10;87.80
47520;DHT22;33252;48.122;11.538;2023-08-24T00:13:18;24.10;87.60
47520;DHT22;33252;48.122;11.538;2023-08-24T00:15:45;24.10;87.60
47520;DHT22;33252;48.122;11.538;2023-08-24T00:18:10;24.00;87.80
47520;DHT22;33252;48.122;11.538;2023-08-24T00:20:36;24.10;87.80
47520;DHT22;33252;48.122;11.538;2023-08-24T00:23:03;24.00;88.30
47520;DHT22;33252;48.122;11.538;2023-08-24T00:25:29;24.00;88.60
47520;DHT22;33252;48.122;11.538;2023-08-24T00:27:56;23.90;88.80
47520;DHT22;33252;48.122;11.538;2023-08-24T00:30:22;23.90;88.90
47520;DHT22;33252;48.122;11.538;2023-08-24T00:32:48;23.80;89.10
47520;DHT22;33252;48.122;11.538;2023-08-24T00:35:14;23.80;89.80
47520;DHT22;33252;48.122;11.538;2023-08-24T00:37:40;23.60;89.90
47520;DHT22;33252;48.122;11.538;2023-08-24T00:40:07;23.60;90.30
47520;DHT22;33252;48.122;11.538;2023-08-24T00:42:42;23.50;90.00
47520;DHT22;33252;48.122;11.538;2023-08-24T00:45:10;23.40;90.20
47520;DHT22;33252;48.122;11.538;2023-08-24T00:47:40;23.40;90.60
47520;DHT22;33252;48.122;11.538;2023-08-24T00:50:07;23.40;90.90
47520;DHT22;33252;48.122;11.538;2023-08-24T00:52:34;23.20;91.30
47520;DHT22;33252;48.122;11.538;2023-08-24T00:55:01;23.20;91.70
47520;DHT22;33252;48.122;11.538;2023-08-24T00:57:28;23.20;92.00
47520;DHT22;33252;48.122;11.538;2023-08-24T00:59:55;23.10;92.30
47520;DHT22;33252;48.122;11.538;2023-08-24T01:02:21;23.00;92.60
47520;DHT22;33252;48.122;11.538;2023-08-24T01:04:47;23.00;92.70
47520;DHT22;33252;48.122;11.538;2023-08-24T01:07:14;22.90;93.00
47520;DHT22;33252;48.122;11.538;2023-08-24T01:09:40;22.90;93.20
47520;DHT22;33252;48.122;11.538;2023-08-24T01:15:04;22.90;93.60
47520;DHT22;33252;48.122;11.538;2023-08-24T01:17:34;22.80;93.70
47520;DHT22;33252;48.122;11.538;2023-08-24T01:20:02;22.80;93.90
47520;DHT22;33252;48.122;11.538;2023-08-24T01:25:20;22.90;93.80
47520;DHT22;33252;48.122;11.538;2023-08-24T01:27:50;22.90;94.10
47520;DHT22;33252;48.122;11.538;2023-08-24T01:30:17;22.80;94.30
47520;DHT22;33252;48.122;11.538;2023-08-24T01:32:43;22.90;94.20
47520;DHT22;33252;48.122;11.538;2023-08-24T01:35:12;22.80;94.50
47520;DHT22;33252;48.122;11.538;2023-08-24T01:37:38;22.80;94.60
47520;DHT22;33252;48.122;11.538;2023-08-24T01:45:15;22.60;94.90
47520;DHT22;33252;48.122;11.538;2023-08-24T01:47:42;22.60;95.00
47520;DHT22;33252;48.122;11.538;2023-08-24T01:50:09;22.60;95.30
47520;DHT22;33252;48.122;11.538;2023-08-24T01:52:35;22.60;95.30
47520;DHT22;33252;48.122;11.538;2023-08-24T01:55:00;22.60;95.30
47520;DHT22;33252;48.122;11.538;2023-08-24T01:57:26;22.60;95.30
47520;DHT22;33252;48.122;11.538;2023-08-24T01:59:52;22.60;95.50
47520;DHT22;33252;48.122;11.538;2023-08-24T02:02:17;22.60;95.30
47520;DHT22;33252;48.122;11.538;2023-08-24T02:04:43;22.50;95.60
47520;DHT22;33252;48.122;11.538;2023-08-24T02:07:09;22.40;95.70
47520;DHT22;33252;48.122;11.538;2023-08-24T02:09:34;22.30;95.90
47520;DHT22;33252;48.122;11.538;2023-08-24T02:12:00;22.30;96.00
47520;DHT22;33252;48.122;11.538;2023-08-24T02:14:25;22.30;96.00
47520;DHT22;33252;48.122;11.538;2023-08-24T02:16:51;22.40;96.00
47520;DHT22;33252;48.122;11.538;2023-08-24T02:19:17;22.30;96.30
47520;DHT22;33252;48.122;11.538;2023-08-24T02:21:42;22.20;96.50
47520;DHT22;33252;48.122;11.538;2023-08-24T02:24:08;22.20;97.00
47520;DHT22;33252;48.122;11.538;2023-08-24T02:26:33;22.10;96.80
47520;DHT22;33252;48.122;11.538;2023-08-24T02:28:59;22.00;97.10
47520;DHT22;33252;48.122;11.538;2023-08-24T02:31:25;22.10;97.00
47520;DHT22;33252;48.122;11.538;2023-08-24T02:33:51;22.00;97.50
47520;DHT22;33252;48.122;11.538;2023-08-24T02:36:16;22.00;97.40
47520;DHT22;33252;48.122;11.538;2023-08-24T02:38:42;22.00;97.60
47520;DHT22;33252;48.122;11.538;2023-08-24T02:41:08;22.00;97.70
47520;DHT22;33252;48.122;11.538;2023-08-24T02:43:36;21.90;98.10
47520;DHT22;33252;48.122;11.538;2023-08-24T02:46:03;21.90;98.10
47520;DHT22;33252;48.122;11.538;2023-08-24T02:48:29;21.90;98.30
47520;DHT22;33252;48.122;11.538;2023-08-24T02:50:57;21.80;98.40
47520;DHT22;33252;48.122;11.538;2023-08-24T02:53:23;21.80;98.70
47520;DHT22;33252;48.122;11.538;2023-08-24T02:55:49;21.70;99.00
47520;DHT22;33252;48.122;11.538;2023-08-24T02:58:15;21.60;99.40
47520;DHT22;33252;48.122;11.538;2023-08-24T03:00:41;21.60;99.50
47520;DHT22;33252;48.122;11.538;2023-08-24T03:03:06;21.60;99.70
47520;DHT22;33252;48.122;11.538;2023-08-24T03:05:32;21.60;99.90
47520;DHT22;33252;48.122;11.538;2023-08-24T03:07:58;21.50;99.90
47520;DHT22;33252;48.122;11.538;2023-08-24T03:10:24;21.50;99.90
47520;DHT22;33252;48.122;11.538;2023-08-24T03:12:50;21.50;99.90
47520;DHT22;33252;48.122;11.538;2023-08-24T03:15:16;21.60;99.90
47520;DHT22;33252;48.122;11.538;2023-08-24T03:17:42;21.60;99.90
47520;DHT22;33252;48.122;11.538;2023-08-24T03:20:08;21.60;99.90
47520;DHT22;33252;48.122;11.538;2023-08-24T03:22:34;21.70;99.90
47520;DHT22;33252;48.122;11.538;2023-08-24T03:25:00;21.60;99.90
47520;DHT22;33252;48.122;11.538;2023-08-24T03:27:25;21.60;99.90
47520;DHT22;33252;48.122;11.538;2023-08-24T03:29:54;21.50;99.90
47520;DHT22;33252;48.122;11.538;2023-08-24T03:32:20;21.40;99.90
47520;DHT22;33252;48.122;11.538;2023-08-24T03:34:45;21.50;99.90
47520;DHT22;33252;48.122;11.538;2023-08-24T03:37:11;21.50;99.90
47520;DHT22;33252;48.122;11.538;2023-08-24T03:39:38;21.50;99.90
47520;DHT22;33252;48.122;11.538;2023-08-24T03:42:03;21.50;99.90
47520;DHT22;33252;48.122;11.538;2023-08-24T03:44:29;21.40;99.90
47520;DHT22;33252;48.122;11.538;2023-08-24T03:46:55;21.30;99.90
47520;DHT22;33252;48.122;11.538;2023-08-24T03:49:20;21.30;99.90
47520;DHT22;33252;48.122;11.538;2023-08-24T03:51:46;21.30;99.90
47520;DHT22;33252;48.122;11.538;2023-08-24T03:54:12;21.30;99.90
47520;DHT22;33252;48.122;11.538;2023-08-24T03:56:38;21.20;99.90
47520;DHT22;33252;48.122;11.538;2023-08-24T03:59:04;21.20;99.90
47520;DHT22;33252;48.122;11.538;2023-08-24T04:01:30;21.30;99.90
47520;DHT22;33252;48.122;11.538;2023-08-24T04:03:55;21.20;99.90
47520;DHT22;33252;48.122;11.538;2023-08-24T04:06:21;21.10;99.90
47520;DHT22;33252;48.122;11.538;2023-08-24T04:08:47;21.10;99.90
47520;DHT22;33252;48.122;11.538;2023-08-24T04:11:12;21.00;99.90
47520;DHT22;33252;48.122;11.538;2023-08-24T04:13:38;21.00;99.90
47520;DHT22;33252;48.122;11.538;2023-08-24T04:16:04;21.10;99.90
47520;DHT22;33252;48.122;11.538;2023-08-24T04:18:29;21.10;99.90
47520;DHT22;33252;48.122;11.538;2023-08-24T04:20:55;20.90;99.90
47520;DHT22;33252;48.122;11.538;2023-08-24T04:23:24;20.90;99.90
47520;DHT22;33252;48.122;11.538;2023-08-24T04:25:53;21.00;99.90
47520;DHT22;33252;48.122;11.538;2023-08-24T04:28:20;21.00;99.90
47520;DHT22;33252;48.122;11.538;2023-08-24T04:30:50;21.10;99.90
47520;DHT22;33252;48.122;11.538;2023-08-24T04:33:16;21.00;99.90
47520;DHT22;33252;48.122;11.538;2023-08-24T04:35:42;21.00;99.90
47520;DHT22;33252;48.122;11.538;2023-08-24T04:38:07;21.00;99.90
47520;DHT22;33252;48.122;11.538;2023-08-24T04:40:48;21.10;99.90
47520;DHT22;33252;48.122;11.538;2023-08-24T04:43:14;21.10;99.90
47520;DHT22;33252;48.122;11.538;2023-08-24T04:45:39;21.20;99.90
47520;DHT22;33252;48.122;11.538;2023-08-24T04:48:05;21.20;99.90
47520;DHT22;33252;48.122;11.538;2023-08-24T04:50:31;21.10;99.90
47520;DHT22;33252;48.122;11.538;2023-08-24T04:52:56;21.20;99.90
47520;DHT22;33252;48.122;11.538;2023-08-24T04:55:23;21.40;99.90
47520;DHT22;33252;48.122;11.538;2023-08-24T04:57:48;21.40;99.90
47520;DHT22;33252;48.122;11.538;2023-08-24T05:00:15;21.50;99.90
47520;DHT22;33252;48.122;11.538;2023-08-24T05:02:42;21.40;99.90
47520;DHT22;33252;48.122;11.538;2023-08-24T05:05:08;21.50;99.90
47520;DHT22;33252;48.122;11.538;2023-08-24T05:07:40;21.50;99.90
47520;DHT22;33252;48.122;11.538;2023-08-24T05:10:06;21.50;99.90
47520;DHT22;33252;48.122;11.538;2023-08-24T05:12:33;21.60;99.90
47520;DHT22;33252;48.122;11.538;2023-08-24T05:15:01;21.70;99.90
47520;DHT22;33252;48.122;11.538;2023-08-24T05:17:27;21.70;99.90
47520;DHT22;33252;48.122;11.538;2023-08-24T05:19:54;21.80;99.90
47520;DHT22;33252;48.122;11.538;2023-08-24T05:22:19;21.80;99.90
47520;DHT22;33252;48.122;11.538;2023-08-24T05:24:46;21.80;99.90
47520;DHT22;33252;48.122;11.538;2023-08-24T05:27:11;21.90;99.90
47520;DHT22;33252;48.122;11.538;2023-08-24T05:29:37;22.00;99.90
47520;DHT22;33252;48.122;11.538;2023-08-24T05:32:03;22.00;99.90
47520;DHT22;33252;48.122;11.538;2023-08-24T05:34:28;22.10;99.90
47520;DHT22;33252;48.122;11.538;2023-08-24T05:36:54;22.10;99.90
47520;DHT22;33252;48.122;11.538;2023-08-24T05:39:20;22.20;99.90
47520;DHT22;33252;48.122;11.538;2023-08-24T05:41:45;22.20;99.90
47520;DHT22;33252;48.122;11.538;2023-08-24T05:44:11;22.40;99.90
47520;DHT22;33252;48.122;11.538;2023-08-24T05:46:37;22.40;99.90
47520;DHT22;33252;48.122;11.538;2023-08-24T05:49:02;22.50;99.90
47520;DHT22;33252;48.122;11.538;2023-08-24T05:51:28;22.50;99.90
47520;DHT22;33252;48.122;11.538;2023-08-24T05:53:54;22.60;99.90
47520;DHT22;33252;48.122;11.538;2023-08-24T05:56:24;22.50;99.90
47520;DHT22;33252;48.122;11.538;2023-08-24T05:58:50;22.60;99.90
47520;DHT22;33252;48.122;11.538;2023-08-24T06:01:16;22.70;99.90
47520;DHT22;33252;48.122;11.538;2023-08-24T06:03:42;22.80;99.90
47520;DHT22;33252;48.122;11.538;2023-08-24T06:06:07;22.80;99.90
47520;DHT22;33252;48.122;11.538;2023-08-24T06:08:34;22.80;99.90
47520;DHT22;33252;48.122;11.538;2023-08-24T06:11:00;22.80;99.90
47520;DHT22;33252;48.122;11.538;2023-08-24T06:13:26;22.90;99.90
47520;DHT22;33252;48.122;11.538;2023-08-24T06:15:52;23.00;99.90
47520;DHT22;33252;48.122;11.538;2023-08-24T06:18:18;23.00;99.90
47520;DHT22;33252;48.122;11.538;2023-08-24T06:20:44;23.00;99.90
47520;DHT22;33252;48.122;11.538;2023-08-24T06:23:11;23.10;99.90
47520;DHT22;33252;48.122;11.538;2023-08-24T06:25:36;23.10;99.90
47520;DHT22;33252;48.122;11.538;2023-08-24T06:28:05;23.30;99.90
47520;DHT22;33252;48.122;11.538;2023-08-24T06:30:30;23.30;99.90
47520;DHT22;33252;48.122;11.538;2023-08-24T06:33:03;23.10;99.90
47520;DHT22;33252;48.122;11.538;2023-08-24T06:35:29;23.20;99.90
47520;DHT22;33252;48.122;11.538;2023-08-24T06:37:54;23.20;99.90
47520;DHT22;33252;48.122;11.538;2023-08-24T06:40:20;23.30;99.90
47520;DHT22;33252;48.122;11.538;2023-08-24T06:42:46;23.40;99.90
47520;DHT22;33252;48.122;11.538;2023-08-24T06:45:11;23.60;99.90
47520;DHT22;33252;48.122;11.538;2023-08-24T06:47:39;23.60;99.90
47520;DHT22;33252;48.122;11.538;2023-08-24T06:50:05;23.70;99.90
47520;DHT22;33252;48.122;11.538;2023-08-24T06:52:31;23.80;99.70
47520;DHT22;33252;48.122;11.538;2023-08-24T06:54:58;23.90;99.00
47520;DHT22;33252;48.122;11.538;2023-08-24T06:57:24;23.90;98.90
47520;DHT22;33252;48.122;11.538;2023-08-24T06:59:50;24.00;98.40
47520;DHT22;33252;48.122;11.538;2023-08-24T07:02:16;24.20;98.10
47520;DHT22;33252;48.122;11.538;2023-08-24T07:04:46;24.30;97.80
47520;DHT22;33252;48.122;11.538;2023-08-24T07:07:12;24.40;97.70
47520;DHT22;33252;48.122;11.538;2023-08-24T07:09:38;24.40;97.60
47520;DHT22;33252;48.122;11.538;2023-08-24T07:12:03;24.50;97.20
47520;DHT22;33252;48.122;11.538;2023-08-24T07:14:32;24.50;97.00
47520;DHT22;33252;48.122;11.538;2023-08-24T07:16:58;24.60;97.10
47520;DHT22;33252;48.122;11.538;2023-08-24T07:19:24;24.60;96.80
47520;DHT22;33252;48.122;11.538;2023-08-24T07:21:50;24.80;96.60
47520;DHT22;33252;48.122;11.538;2023-08-24T07:24:16;24.90;96.80
47520;DHT22;33252;48.122;11.538;2023-08-24T07:26:44;24.90;96.50
47520;DHT22;33252;48.122;11.538;2023-08-24T07:29:10;24.90;96.40
47520;DHT22;33252;48.122;11.538;2023-08-24T07:31:36;25.10;96.40
47520;DHT22;33252;48.122;11.538;2023-08-24T07:34:03;25.10;96.60
47520;DHT22;33252;48.122;11.538;2023-08-24T07:36:29;25.20;96.40
47520;DHT22;33252;48.122;11.538;2023-08-24T07:38:55;25.30;96.10
47520;DHT22;33252;48.122;11.538;2023-08-24T07:41:21;25.40;96.20
47520;DHT22;33252;48.122;11.538;2023-08-24T07:43:47;25.40;96.00
47520;DHT22;33252;48.122;11.538;2023-08-24T07:46:12;25.50;95.80
47520;DHT22;33252;48.122;11.538;2023-08-24T07:48:38;25.60;95.50
47520;DHT22;33252;48.122;11.538;2023-08-24T07:51:04;25.70;95.20
47520;DHT22;33252;48.122;11.538;2023-08-24T07:53:30;25.80;95.20
47520;DHT22;33252;48.122;11.538;2023-08-24T07:55:56;25.90;95.00
47520;DHT22;33252;48.122;11.538;2023-08-24T07:58:23;26.00;94.80
47520;DHT22;33252;48.122;11.538;2023-08-24T08:00:52;26.10;94.80
47520;DHT22;33252;48.122;11.538;2023-08-24T08:03:19;26.00;94.90
47520;DHT22;33252;48.122;11.538;2023-08-24T08:05:45;26.10;94.80
47520;DHT22;33252;48.122;11.538;2023-08-24T08:08:15;26.30;94.60
47520;DHT22;33252;48.122;11.538;2023-08-24T08:10:41;26.50;94.10
47520;DHT22;33252;48.122;11.538;2023-08-24T08:13:08;26.60;93.80
47520;DHT22;33252;48.122;11.538;2023-08-24T08:15:34;26.60;93.50
47520;DHT22;33252;48.122;11.538;2023-08-24T08:18:01;26.60;93.60
47520;DHT22;33252;48.122;11.538;2023-08-24T08:20:27;26.60;93.80
47520;DHT22;33252;48.122;11.538;2023-08-24T08:22:53;26.80;93.30
47520;DHT22;33252;48.122;11.538;2023-08-24T08:25:18;27.00;93.00
47520;DHT22;33252;48.122;11.538;2023-08-24T08:27:44;27.10;92.80
47520;DHT22;33252;48.122;11.538;2023-08-24T08:30:10;27.20;92.70
47520;DHT22;33252;48.122;11.538;2023-08-24T08:32:36;27.20;92.60
47520;DHT22;33252;48.122;11.538;2023-08-24T08:35:02;27.30;92.60
47520;DHT22;33252;48.122;11.538;2023-08-24T08:37:30;27.40;92.50
47520;DHT22;33252;48.122;11.538;2023-08-24T08:39:57;27.50;92.20
47520;DHT22;33252;48.122;11.538;2023-08-24T08:42:23;27.50;92.20
47520;DHT22;33252;48.122;11.538;2023-08-24T08:44:49;27.50;92.30
47520;DHT22;33252;48.122;11.538;2023-08-24T08:47:15;27.50;92.10
47520;DHT22;33252;48.122;11.538;2023-08-24T08:49:43;27.50;92.00
47520;DHT22;33252;48.122;11.538;2023-08-24T08:52:09;27.60;91.70
47520;DHT22;33252;48.122;11.538;2023-08-24T08:54:35;27.70;91.50
47520;DHT22;33252;48.122;11.538;2023-08-24T08:57:01;27.80;91.40
47520;DHT22;33252;48.122;11.538;2023-08-24T08:59:28;27.80;91.40
47520;DHT22;33252;48.122;11.538;2023-08-24T09:01:56;28.00;91.20
47520;DHT22;33252;48.122;11.538;2023-08-24T09:04:24;28.00;91.30
47520;DHT22;33252;48.122;11.538;2023-08-24T09:06:50;28.20;91.10
47520;DHT22;33252;48.122;11.538;2023-08-24T09:09:16;28.10;91.30
47520;DHT22;33252;48.122;11.538;2023-08-24T09:11:43;28.20;91.20
47520;DHT22;33252;48.122;11.538;2023-08-24T09:14:12;28.10;91.00
47520;DHT22;33252;48.122;11.538;2023-08-24T09:16:39;28.20;90.90
47520;DHT22;33252;48.122;11.538;2023-08-24T09:19:05;28.20;90.90
47520;DHT22;33252;48.122;11.538;2023-08-24T09:21:37;28.20;90.90
47520;DHT22;33252;48.122;11.538;2023-08-24T09:24:03;28.20;90.80
47520;DHT22;33252;48.122;11.538;2023-08-24T09:26:36;28.40;90.50
47520;DHT22;33252;48.122;11.538;2023-08-24T09:29:12;28.40;90.40
47520;DHT22;33252;48.122;11.538;2023-08-24T09:31:42;28.60;90.20
47520;DHT22;33252;48.122;11.538;2023-08-24T09:34:11;28.80;89.80
47520;DHT22;33252;48.122;11.538;2023-08-24T09:36:37;29.00;89.30
47520;DHT22;33252;48.122;11.538;2023-08-24T09:39:04;29.00;88.50
47520;DHT22;33252;48.122;11.538;2023-08-24T09:41:45;29.10;88.30
47520;DHT22;33252;48.122;11.538;2023-08-24T09:44:12;29.20;87.50
47520;DHT22;33252;48.122;11.538;2023-08-24T09:46:42;29.30;87.90
47520;DHT22;33252;48.122;11.538;2023-08-24T09:49:09;29.40;87.40
47520;DHT22;33252;48.122;11.538;2023-08-24T09:51:36;29.20;88.00
47520;DHT22;33252;48.122;11.538;2023-08-24T09:54:05;29.30;87.10
47520;DHT22;33252;48.122;11.538;2023-08-24T09:56:36;29.20;87.40
47520;DHT22;33252;48.122;11.538;2023-08-24T09:59:16;29.20;87.30
47520;DHT22;33252;48.122;11.538;2023-08-24T10:01:45;29.30;87.20
47520;DHT22;33252;48.122;11.538;2023-08-24T10:04:13;29.10;86.60
47520;DHT22;33252;48.122;11.538;2023-08-24T10:06:39;29.30;84.70
47520;DHT22;33252;48.122;11.538;2023-08-24T10:09:18;29.20;86.50
47520;DHT22;33252;48.122;11.538;2023-08-24T10:11:49;29.10;86.90
47520;DHT22;33252;48.122;11.538;2023-08-24T10:14:19;29.10;87.00
47520;DHT22;33252;48.122;11.538;2023-08-24T10:16:47;29.30;85.70
47520;DHT22;33252;48.122;11.538;2023-08-24T10:19:13;29.40;83.80
47520;DHT22;33252;48.122;11.538;2023-08-24T10:21:39;29.40;84.10
47520;DHT22;33252;48.122;11.538;2023-08-24T10:24:08;29.70;79.10
47520;DHT22;33252;48.122;11.538;2023-08-24T10:26:36;29.80;80.30
47520;DHT22;33252;48.122;11.538;2023-08-24T10:29:03;29.70;82.60
47520;DHT22;33252;48.122;11.538;2023-08-24T10:31:29;29.30;82.70
47520;DHT22;33252;48.122;11.538;2023-08-24T10:33:57;29.50;82.00
47520;DHT22;33252;48.122;11.538;2023-08-24T10:36:23;30.00;80.70
47520;DHT22;33252;48.122;11.538;2023-08-24T10:38:49;30.30;80.90
47520;DHT22;33252;48.122;11.538;2023-08-24T10:41:15;30.50;81.30
47520;DHT22;33252;48.122;11.538;2023-08-24T10:43:41;30.70;81.10
47520;DHT22;33252;48.122;11.538;2023-08-24T10:46:14;30.90;80.90
47520;DHT22;33252;48.122;11.538;2023-08-24T10:56:20;31.10;77.90
47520;DHT22;33252;48.122;11.538;2023-08-24T10:58:47;31.40;77.30
47520;DHT22;33252;48.122;11.538;2023-08-24T11:01:33;31.50;76.70
47520;DHT22;33252;48.122;11.538;2023-08-24T11:04:00;31.40;74.50
47520;DHT22;33252;48.122;11.538;2023-08-24T11:06:26;31.40;75.60
47520;DHT22;33252;48.122;11.538;2023-08-24T11:09:09;31.70;74.70
47520;DHT22;33252;48.122;11.538;2023-08-24T11:11:40;32.00;75.00
47520;DHT22;33252;48.122;11.538;2023-08-24T11:14:16;31.90;71.70
47520;DHT22;33252;48.122;11.538;2023-08-24T11:16:45;31.80;72.20
47520;DHT22;33252;48.122;11.538;2023-08-24T11:19:12;32.00;74.00
47520;DHT22;33252;48.122;11.538;2023-08-24T11:21:41;32.10;73.40
47520;DHT22;33252;48.122;11.538;2023-08-24T11:24:12;32.20;73.60
47520;DHT22;33252;48.122;11.538;2023-08-24T11:26:46;32.20;73.00
47520;DHT22;33252;48.122;11.538;2023-08-24T11:29:12;32.30;72.70
47520;DHT22;33252;48.122;11.538;2023-08-24T11:31:38;32.30;71.40
47520;DHT22;33252;48.122;11.538;2023-08-24T11:34:05;32.40;70.70
47520;DHT22;33252;48.122;11.538;2023-08-24T11:36:46;32.60;70.80
47520;DHT22;33252;48.122;11.538;2023-08-24T11:39:20;32.60;70.40
47520;DHT22;33252;48.122;11.538;2023-08-24T11:42:06;32.60;71.00
47520;DHT22;33252;48.122;11.538;2023-08-24T11:44:50;32.90;70.60
47520;DHT22;33252;48.122;11.538;2023-08-24T11:47:16;33.00;69.80
47520;DHT22;33252;48.122;11.538;2023-08-24T11:49:42;33.00;69.30
47520;DHT22;33252;48.122;11.538;2023-08-24T11:52:08;33.00;68.50
47520;DHT22;33252;48.122;11.538;2023-08-24T11:54:35;33.00;67.50
47520;DHT22;33252;48.122;11.538;2023-08-24T11:57:06;33.10;67.80
47520;DHT22;33252;48.122;11.538;2023-08-24T11:59:33;33.30;67.40
47520;DHT22;33252;48.122;11.538;2023-08-24T12:01:59;33.40;66.70
47520;DHT22;33252;48.122;11.538;2023-08-24T12:04:25;33.60;67.70
47520;DHT22;33252;48.122;11.538;2023-08-24T12:06:51;33.60;67.30
47520;DHT22;33252;48.122;11.538;2023-08-24T12:09:16;33.70;67.40
47520;DHT22;33252;48.122;11.538;2023-08-24T12:11:42;33.90;67.30
47520;DHT22;33252;48.122;11.538;2023-08-24T12:14:16;34.00;64.10
47520;DHT22;33252;48.122;11.538;2023-08-24T12:16:42;34.00;65.50
47520;DHT22;33252;48.122;11.538;2023-08-24T12:19:08;34.30;65.20
47520;DHT22;33252;48.122;11.538;2023-08-24T12:21:35;34.50;64.50
47520;DHT22;33252;48.122;11.538;2023-08-24T12:24:07;34.60;63.70
47520;DHT22;33252;48.122;11.538;2023-08-24T12:26:34;34.80;63.80
47520;DHT22;33252;48.122;11.538;2023-08-24T12:29:10;35.00;63.40
47520;DHT22;33252;48.122;11.538;2023-08-24T12:31:36;35.20;62.90
47520;DHT22;33252;48.122;11.538;2023-08-24T12:34:06;35.30;62.70
47520;DHT22;33252;48.122;11.538;2023-08-24T12:36:36;35.40;62.60
47520;DHT22;33252;48.122;11.538;2023-08-24T12:39:03;35.30;61.40
47520;DHT22;33252;48.122;11.538;2023-08-24T12:41:30;35.50;61.60
47520;DHT22;33252;48.122;11.538;2023-08-24T12:43:56;35.70;61.90
47520;DHT22;33252;48.122;11.538;2023-08-24T12:46:22;35.80;61.50
47520;DHT22;33252;48.122;11.538;2023-08-24T12:48:52;35.30;61.40
47520;DHT22;33252;48.122;11.538;2023-08-24T12:51:17;35.00;62.00
47520;DHT22;33252;48.122;11.538;2023-08-24T12:53:46;34.80;62.60
47520;DHT22;33252;48.122;11.538;2023-08-24T12:56:12;34.80;62.50
47520;DHT22;33252;48.122;11.538;2023-08-24T12:58:38;35.30;62.30
47520;DHT22;33252;48.122;11.538;2023-08-24T13:01:03;35.80;60.90
47520;DHT22;33252;48.122;11.538;2023-08-24T13:03:29;36.50;60.70
47520;DHT22;33252;48.122;11.538;2023-08-24T13:05:55;36.30;60.50
47520;DHT22;33252;48.122;11.538;2023-08-24T13:08:20;36.20;59.40
47520;DHT22;33252;48.122;11.538;2023-08-24T13:10:46;36.50;58.90
47520;DHT22;33252;48.122;11.538;2023-08-24T13:13:12;36.90;58.40
47520;DHT22;33252;48.122;11.538;2023-08-24T13:15:38;37.30;58.30
47520;DHT22;33252;48.122;11.538;2023-08-24T13:18:06;37.30;58.00
47520;DHT22;33252;48.122;11.538;2023-08-24T13:20:31;38.20;58.40
47520;DHT22;33252;48.122;11.538;2023-08-24T13:22:57;38.30;58.10
47520;DHT22;33252;48.122;11.538;2023-08-24T13:25:23;38.40;58.20
47520;DHT22;33252;48.122;11.538;2023-08-24T13:27:48;39.90;55.40
47520;DHT22;33252;48.122;11.538;2023-08-24T13:30:14;41.00;54.90
47520;DHT22;33252;48.122;11.538;2023-08-24T13:32:39;41.20;54.60
47520;DHT22;33252;48.122;11.538;2023-08-24T13:35:06;41.50;53.40
47520;DHT22;33252;48.122;11.538;2023-08-24T13:37:31;41.50;53.80
47520;DHT22;33252;48.122;11.538;2023-08-24T13:40:00;41.50;54.20
47520;DHT22;33252;48.122;11.538;2023-08-24T13:42:25;41.90;53.80
47520;DHT22;33252;48.122;11.538;2023-08-24T13:44:51;42.80;51.90
47520;DHT22;33252;48.122;11.538;2023-08-24T13:47:17;43.00;51.60
47520;DHT22;33252;48.122;11.538;2023-08-24T13:49:43;43.60;50.70
47520;DHT22;33252;48.122;11.538;2023-08-24T13:52:08;43.60;50.90
47520;DHT22;33252;48.122;11.538;2023-08-24T13:54:34;44.40;50.90
47520;DHT22;33252;48.122;11.538;2023-08-24T13:57:00;44.20;50.40
47520;DHT22;33252;48.122;11.538;2023-08-24T13:59:27;43.90;51.30
47520;DHT22;33252;48.122;11.538;2023-08-24T14:01:52;43.20;51.00
47520;DHT22;33252;48.122;11.538;2023-08-24T14:04:18;42.10;51.40
47520;DHT22;33252;48.122;11.538;2023-08-24T14:06:43;43.20;49.50
47520;DHT22;33252;48.122;11.538;2023-08-24T14:09:09;44.30;49.10
47520;DHT22;33252;48.122;11.538;2023-08-24T14:11:35;44.20;49.30
47520;DHT22;33252;48.122;11.538;2023-08-24T14:14:00;42.30;51.00
47520;DHT22;33252;48.122;11.538;2023-08-24T14:16:26;42.80;52.30
47520;DHT22;33252;48.122;11.538;2023-08-24T14:18:52;43.80;50.60
47520;DHT22;33252;48.122;11.538;2023-08-24T14:21:18;44.00;49.30
47520;DHT22;33252;48.122;11.538;2023-08-24T14:23:45;43.30;50.10
47520;DHT22;33252;48.122;11.538;2023-08-24T14:26:11;43.70;49.50
47520;DHT22;33252;48.122;11.538;2023-08-24T14:29:07;43.90;51.50
47520;DHT22;33252;48.122;11.538;2023-08-24T14:31:34;43.30;49.00
47520;DHT22;33252;48.122;11.538;2023-08-24T14:33:59;42.20;50.30
47520;DHT22;33252;48.122;11.538;2023-08-24T14:36:25;41.40;51.00
47520;DHT22;33252;48.122;11.538;2023-08-24T14:38:51;40.90;52.40
47520;DHT22;33252;48.122;11.538;2023-08-24T14:41:19;42.70;50.30
47520;DHT22;33252;48.122;11.538;2023-08-24T14:43:46;42.70;49.10
47520;DHT22;33252;48.122;11.538;2023-08-24T14:46:11;43.50;47.70
47520;DHT22;33252;48.122;11.538;2023-08-24T14:48:37;43.80;47.40
47520;DHT22;33252;48.122;11.538;2023-08-24T14:51:03;44.40;47.70
47520;DHT22;33252;48.122;11.538;2023-08-24T14:53:28;44.20;48.90
47520;DHT22;33252;48.122;11.538;2023-08-24T14:55:57;44.00;48.80
47520;DHT22;33252;48.122;11.538;2023-08-24T14:58:24;43.50;50.20
47520;DHT22;33252;48.122;11.538;2023-08-24T15:00:50;44.10;49.20
47520;DHT22;33252;48.122;11.538;2023-08-24T15:03:17;43.50;49.70
47520;DHT22;33252;48.122;11.538;2023-08-24T15:05:55;43.90;49.80
47520;DHT22;33252;48.122;11.538;2023-08-24T15:08:21;44.00;49.70
47520;DHT22;33252;48.122;11.538;2023-08-24T15:10:48;43.30;50.70
47520;DHT22;33252;48.122;11.538;2023-08-24T15:13:14;42.50;51.30
47520;DHT22;33252;48.122;11.538;2023-08-24T15:15:40;42.00;52.50
47520;DHT22;33252;48.122;11.538;2023-08-24T15:18:08;41.00;49.70
47520;DHT22;33252;48.122;11.538;2023-08-24T15:20:33;42.10;49.60
47520;DHT22;33252;48.122;11.538;2023-08-24T15:22:59;41.30;48.10
47520;DHT22;33252;48.122;11.538;2023-08-24T15:25:26;41.60;47.70
47520;DHT22;33252;48.122;11.538;2023-08-24T15:27:51;42.00;47.40
47520;DHT22;33252;48.122;11.538;2023-08-24T15:30:17;40.30;47.80
47520;DHT22;33252;48.122;11.538;2023-08-24T15:32:43;39.80;49.10